Time;durP1;ratioP1;P1;durP2;ratioP2;P2;SDS_P1;SDS_P2;PMS_P1;PMS_P2;Temp;Humidity;BMP_temperature;BMP_pressure;BME280_temperature;BME280_humidity;BME280_pressure;Samples;Min_cycle;Max_cycle;Signal;HPM_P1;HPM_P2
2023/01/31 09:01:07;;;;;;;26.67;7.75;;;;;;;0.26;100.00;100051.00;5025532;28;20393;-80
2023/01/31 09:03:34;;;;;;;21.98;7.80;;;;;;;0.35;100.00;100068.28;5023664;28;20050;-80
2023/01/31 09:06:01;;;;;;;14.27;7.78;;;;;;;0.33;100.00;100056.81;5025014;28;20409;-80
2023/01/31 09:08:27;;;;;;;14.00;6.70;;;;;;;0.62;100.00;100079.03;5025251;28;20480;-80
2023/01/31 09:10:54;;;;;;;18.05;7.15;;;;;;;0.77;100.00;100084.34;5021630;28;20045;-80
2023/01/31 09:13:21;;;;;;;18.58;8.10;;;;;;;0.90;100.00;100050.44;5040811;27;20050;-80
2023/01/31 09:15:57;;;;;;;19.73;7.65;;;;;;;1.19;100.00;100058.38;5041228;27;20050;-80
2023/01/31 09:18:25;;;;;;;14.48;7.50;;;;;;;1.51;100.00;100066.91;5020503;28;20050;-80
2023/01/31 09:20:52;;;;;;;16.23;7.70;;;;;;;1.63;100.00;100049.13;5021601;28;20052;-80
2023/01/31 09:23:19;;;;;;;31.45;8.98;;;;;;;1.72;100.00;100051.16;5024492;27;20400;-80
2023/01/31 09:25:52;;;;;;;20.23;6.82;;;;;;;1.73;100.00;100060.06;5023876;28;20094;-80
2023/01/31 09:28:18;;;;;;;18.60;7.78;;;;;;;1.81;100.00;100060.41;5013730;28;20056;-80
2023/01/31 09:30:45;;;;;;;17.45;7.38;;;;;;;1.83;100.00;100057.63;5024405;28;20148;-80
2023/01/31 09:33:11;;;;;;;12.80;6.43;;;;;;;1.84;100.00;100032.53;5024083;28;20045;-80
2023/01/31 09:35:39;;;;;;;19.70;7.25;;;;;;;2.13;100.00;100042.03;5024570;28;20061;-80
2023/01/31 09:38:06;;;;;;;15.95;6.30;;;;;;;2.21;100.00;100044.16;5024454;28;20133;-80
2023/01/31 09:40:35;;;;;;;18.70;6.65;;;;;;;2.08;100.00;100036.16;5023119;28;20484;-80
2023/01/31 09:43:03;;;;;;;13.85;6.57;;;;;;;1.99;100.00;100035.94;5022225;28;20042;-80
2023/01/31 09:45:33;;;;;;;23.60;8.25;;;;;;;2.15;100.00;100044.59;5016908;28;20378;-80
2023/01/31 09:48:01;;;;;;;14.77;6.18;;;;;;;2.24;100.00;100059.19;5110370;27;20047;-80
2023/01/31 09:50:33;;;;;;;18.00;6.53;;;;;;;2.26;100.00;100049.22;5023231;28;20049;-80
2023/01/31 09:53:01;;;;;;;18.42;5.93;;;;;;;2.43;100.00;100039.94;5016871;28;20053;-80
2023/01/31 09:55:36;;;;;;;13.65;5.88;;;;;;;2.63;100.00;100054.59;5018310;28;20057;-80
2023/01/31 09:58:12;;;;;;;14.10;4.75;;;;;;;2.57;100.00;100053.19;5024656;28;20064;-80
2023/01/31 10:00:46;;;;;;;14.25;5.05;;;;;;;2.61;100.00;100072.66;5024242;28;20137;-80
2023/01/31 10:03:29;;;;;;;19.98;5.28;;;;;;;2.60;100.00;100049.44;5023698;27;20061;-80
2023/01/31 10:06:02;;;;;;;12.93;5.63;;;;;;;2.57;100.00;100047.00;5024171;28;20045;-80
2023/01/31 10:08:40;;;;;;;17.25;5.40;;;;;;;2.74;100.00;100059.16;5019363;28;20046;-80
2023/01/31 10:11:13;;;;;;;15.57;5.60;;;;;;;2.80;100.00;100048.84;5029988;28;20149;-80
2023/01/31 10:13:46;;;;;;;21.77;6.25;;;;;;;2.77;100.00;100037.47;5031821;28;20045;-80
2023/01/31 10:16:23;;;;;;;16.95;5.82;;;;;;;2.81;100.00;100052.38;5010806;28;20050;-80
2023/01/31 10:18:54;;;;;;;20.95;6.22;;;;;;;2.86;100.00;100038.59;5010921;28;20046;-80
2023/01/31 10:21:25;;;;;;;13.43;5.28;;;;;;;2.77;100.00;100022.22;5010864;28;20068;-80
2023/01/31 10:23:58;;;;;;;17.20;4.95;;;;;;;2.91;100.00;100039.16;5001402;28;20417;-80
2023/01/31 10:26:28;;;;;;;21.38;4.78;;;;;;;2.77;100.00;100042.84;5001679;28;20046;-80
2023/01/31 10:29:00;;;;;;;10.63;4.82;;;;;;;2.81;100.00;100039.81;5009289;28;20056;-80
2023/01/31 10:31:32;;;;;;;11.02;4.43;;;;;;;2.82;100.00;100041.53;5010835;28;20046;-80
2023/01/31 10:34:03;;;;;;;11.02;4.07;;;;;;;2.99;100.00;100058.22;5010069;28;20050;-80
2023/01/31 10:36:34;;;;;;;12.85;4.20;;;;;;;2.81;100.00;100033.59;5010614;28;20058;-80
2023/01/31 10:39:12;;;;;;;11.15;4.20;;;;;;;2.89;100.00;100052.69;5010863;28;20054;-80
2023/01/31 10:41:49;;;;;;;11.05;4.10;;;;;;;3.12;100.00;100069.75;5001065;28;20481;-80
2023/01/31 10:44:23;;;;;;;13.25;4.00;;;;;;;3.12;100.00;100048.28;5073220;28;20054;-80
2023/01/31 10:46:52;;;;;;;18.38;4.72;;;;;;;3.20;100.00;100066.50;5113887;27;20056;-80
2023/01/31 10:49:23;;;;;;;12.65;3.90;;;;;;;3.21;100.00;100059.28;5113967;28;20043;-80
2023/01/31 10:52:07;;;;;;;10.98;4.13;;;;;;;3.40;100.00;100058.75;5113613;28;20130;-80
2023/01/31 10:54:48;;;;;;;14.57;4.60;;;;;;;3.34;100.00;100033.19;5086005;27;20054;-80
2023/01/31 10:57:15;;;;;;;9.30;3.72;;;;;;;3.19;100.00;100059.41;4995308;28;20048;-80
2023/01/31 10:59:45;;;;;;;16.92;4.13;;;;;;;3.00;100.00;100041.13;5007177;28;20138;-80
2023/01/31 11:02:20;;;;;;;13.00;4.07;;;;;;;2.96;100.00;100040.50;5009651;28;20050;-81
2023/01/31 11:04:49;;;;;;;12.23;3.60;;;;;;;2.98;100.00;100030.50;5010197;28;20057;-80
2023/01/31 11:07:16;;;;;;;13.48;4.68;;;;;;;3.09;100.00;100036.91;5010307;28;20050;-80
2023/01/31 11:09:50;;;;;;;9.95;3.55;;;;;;;2.95;100.00;99997.63;5007460;28;20066;-80
2023/01/31 11:12:17;;;;;;;15.35;4.32;;;;;;;3.13;100.00;100006.13;5000221;28;20054;-80
2023/01/31 11:14:44;;;;;;;10.02;3.70;;;;;;;3.03;100.00;100002.41;5041796;28;20052;-80
2023/01/31 11:17:17;;;;;;;10.63;3.45;;;;;;;3.09;100.00;100007.34;5069599;28;20465;-79
2023/01/31 11:19:46;;;;;;;15.45;3.28;;;;;;;3.10;100.00;100001.00;5113530;28;20044;-80
2023/01/31 11:22:22;;;;;;;4.28;2.72;;;;;;;3.17;99.44;99999.56;5111826;28;20058;-80
2023/01/31 11:24:51;;;;;;;10.38;2.92;;;;;;;3.26;98.95;100006.06;5043464;28;20046;-80
2023/01/31 11:27:26;;;;;;;8.97;3.00;;;;;;;3.30;99.11;99988.72;5009939;28;20041;-80
2023/01/31 11:29:56;;;;;;;7.32;3.08;;;;;;;3.19;98.06;99958.16;5047123;28;20051;-80
2023/01/31 11:32:26;;;;;;;12.57;3.25;;;;;;;3.36;96.51;99958.69;5005937;28;20088;-80
2023/01/31 11:34:57;;;;;;;8.52;2.80;;;;;;;3.42;94.87;99971.66;4989970;28;20489;-79
2023/01/31 11:37:24;;;;;;;8.18;2.72;;;;;;;3.38;95.16;99970.16;4990233;28;20051;-80
2023/01/31 11:39:57;;;;;;;10.55;3.20;;;;;;;3.53;93.28;99973.50;4997730;28;20054;-80
2023/01/31 11:42:24;;;;;;;10.13;2.80;;;;;;;3.46;92.93;99969.56;5008985;28;20504;-80
2023/01/31 11:44:59;;;;;;;11.40;3.00;;;;;;;3.38;93.71;99958.56;5008163;28;20052;-80
2023/01/31 11:47:33;;;;;;;6.22;3.30;;;;;;;3.59;94.36;99980.25;4999705;28;20042;-80
2023/01/31 11:50:02;;;;;;;11.02;4.13;;;;;;;3.62;93.11;99975.47;5005692;28;20046;-80
2023/01/31 11:52:31;;;;;;;5.72;2.55;;;;;;;3.48;92.60;99965.78;4989253;28;20408;-79
2023/01/31 11:55:01;;;;;;;11.85;2.75;;;;;;;3.50;92.89;99955.78;4989929;28;20076;-79
2023/01/31 11:57:33;;;;;;;5.63;2.53;;;;;;;3.51;92.28;99957.50;4989923;28;20050;-80
2023/01/31 12:00:02;;;;;;;5.18;1.98;;;;;;;3.57;90.56;99950.78;4989761;28;20057;-79
2023/01/31 12:02:35;;;;;;;9.37;2.63;;;;;;;3.43;89.64;99929.50;5001285;28;20058;-79
2023/01/31 12:05:09;;;;;;;8.18;1.98;;;;;;;3.39;88.31;99920.81;5010430;28;20155;-80
2023/01/31 12:07:43;;;;;;;10.43;2.60;;;;;;;3.62;89.40;99945.03;4997477;28;20046;-80
2023/01/31 12:13:12;;;;;;;8.65;2.30;;;;;;;3.68;88.13;99915.81;5147568;27;20377;-80
2023/01/31 12:15:46;;;;;;;9.15;2.30;;;;;;;3.60;88.42;99888.69;5149686;27;20042;-79
2023/01/31 12:18:13;;;;;;;3.72;1.98;;;;;;;3.91;87.64;99913.13;5141618;27;20417;-80
2023/01/31 12:20:48;;;;;;;13.52;3.50;;;;;;;3.86;87.91;99889.28;5148938;27;20478;-80
2023/01/31 12:23:30;;;;;;;10.10;3.15;;;;;;;4.00;85.78;99919.59;5140977;27;20058;-80
2023/01/31 12:26:08;;;;;;;8.20;2.35;;;;;;;3.99;84.79;99905.28;5148773;27;20496;-80
2023/01/31 12:28:58;;;;;;;10.18;2.53;;;;;;;4.01;83.49;99916.78;5149730;27;20058;-79
2023/01/31 12:31:50;;;;;;;3.25;1.88;;;;;;;4.07;82.88;99905.50;5142853;27;20047;-80
2023/01/31 12:34:38;;;;;;;7.47;2.72;;;;;;;3.89;82.11;99872.03;5139150;27;20054;-79
2023/01/31 12:37:30;;;;;;;8.35;1.77;;;;;;;4.11;83.00;99911.50;5149253;27;20058;-80
2023/01/31 12:40:11;;;;;;;9.40;2.03;;;;;;;4.17;82.83;99913.69;5150235;27;20076;-80
2023/01/31 12:42:54;;;;;;;3.65;1.70;;;;;;;3.87;81.67;99868.63;5149112;27;20043;-80
2023/01/31 12:45:42;;;;;;;13.18;2.35;;;;;;;3.90;81.19;99879.13;5150062;27;20058;-80
2023/01/31 12:48:39;;;;;;;7.80;2.25;;;;;;;3.89;83.20;99870.19;5149743;27;20519;-80
2023/01/31 12:51:19;;;;;;;6.35;1.83;;;;;;;3.81;81.96;99866.41;5146664;27;20049;-80
2023/01/31 12:53:50;;;;;;;;;;;;;;;3.81;81.59;99871.78;5149237;27;20131;-80
2023/01/31 12:56:45;;;;;;;5.00;1.73;;;;;;;3.69;82.29;99866.44;5149859;27;20358;-80
2023/01/31 12:59:24;;;;;;;2.75;1.70;;;;;;;3.61;82.19;99857.28;5147612;27;20057;-80
2023/01/31 13:01:58;;;;;;;6.00;2.33;;;;;;;3.49;83.60;99826.84;5149586;27;20051;-80
2023/01/31 13:04:35;;;;;;;13.65;2.20;;;;;;;3.69;82.90;99855.69;5141723;27;20053;-80
2023/01/31 13:07:07;;;;;;;6.85;2.10;;;;;;;3.64;83.52;99838.19;5146621;27;20076;-81
2023/01/31 13:09:36;;;;;;;9.77;1.90;;;;;;;3.68;84.18;99834.28;5148977;27;20049;-80
2023/01/31 13:12:07;;;;;;;4.35;2.03;;;;;;;3.69;84.36;99822.56;5146332;27;20054;-80
2023/01/31 13:14:40;;;;;;;4.55;1.55;;;;;;;3.85;82.97;99862.50;5149167;27;20197;-80
2023/01/31 13:17:12;;;;;;;5.68;1.77;;;;;;;3.78;82.40;99812.88;5149112;27;20051;-80
2023/01/31 13:19:45;;;;;;;8.52;2.50;;;;;;;3.90;81.15;99809.19;5139385;27;20042;-80
2023/01/31 13:22:16;;;;;;;5.57;1.92;;;;;;;3.93;81.80;99810.75;5147791;27;20217;-80
2023/01/31 13:24:48;;;;;;;9.10;2.15;;;;;;;3.95;81.62;99828.50;5132451;27;20048;-80
2023/01/31 13:27:19;;;;;;;6.57;1.60;;;;;;;3.99;82.00;99831.78;5127073;27;20409;-80
2023/01/31 13:29:52;;;;;;;6.32;1.67;;;;;;;4.12;81.51;99840.53;5134856;27;20130;-80
2023/01/31 13:32:27;;;;;;;3.10;1.50;;;;;;;4.07;80.91;99849.00;5133315;27;20375;-80
2023/01/31 13:35:00;;;;;;;3.80;1.88;;;;;;;4.13;82.01;99841.41;5134809;27;20062;-80
2023/01/31 13:37:30;;;;;;;5.05;2.13;;;;;;;3.97;80.70;99815.75;5135156;27;20050;-81
2023/01/31 13:40:00;;;;;;;7.07;2.03;;;;;;;4.08;81.25;99834.56;5131955;27;20047;-80
2023/01/31 13:42:27;;;;;;;3.05;1.77;;;;;;;4.21;80.24;99857.78;5127803;27;20051;-80
2023/01/31 13:44:55;;;;;;;10.00;2.50;;;;;;;3.94;81.18;99809.78;5132611;27;20044;-80
2023/01/31 13:47:27;;;;;;;4.05;1.48;;;;;;;3.99;80.61;99816.50;5127509;27;20046;-79
2023/01/31 13:49:57;;;;;;;6.78;2.38;;;;;;;4.11;81.22;99800.31;5134834;27;20051;-80
2023/01/31 13:52:26;;;;;;;;;;;;;;;4.11;79.16;99819.16;5134538;27;20433;-80
2023/01/31 13:54:58;;;;;;;5.85;2.05;;;;;;;4.10;79.96;99826.38;5132742;27;19919;-80
2023/01/31 13:57:29;;;;;;;6.07;2.10;;;;;;;3.96;79.71;99795.25;5134538;27;20047;-80
2023/01/31 14:00:03;;;;;;;3.00;1.70;;;;;;;4.05;79.54;99816.00;5132557;27;20135;-80
2023/01/31 14:02:31;;;;;;;5.50;1.55;;;;;;;4.15;79.64;99816.06;5127741;27;20051;-80
2023/01/31 14:05:06;;;;;;;7.18;2.03;;;;;;;4.15;79.91;99797.22;5134492;27;20039;-80
2023/01/31 14:07:33;;;;;;;6.15;1.98;;;;;;;4.05;77.70;99785.53;5134473;27;20043;-80
2023/01/31 14:10:36;;;;;;;3.05;1.33;;;;;;;4.06;77.50;99801.56;5134039;27;20130;-80
2023/01/31 14:13:26;;;;;;;10.30;1.55;;;;;;;4.05;77.98;99793.59;5130435;27;20111;-80
2023/01/31 14:15:55;;;;;;;6.05;2.20;;;;;;;3.84;77.61;99756.75;5120298;27;20047;-79
2023/01/31 14:18:43;;;;;;;3.67;1.20;;;;;;;3.89;77.79;99767.97;5134161;27;20054;-80
2023/01/31 14:21:43;;;;;;;7.78;1.85;;;;;;;4.02;78.67;99780.41;5133984;27;20047;-81
2023/01/31 14:24:20;;;;;;;5.47;1.98;;;;;;;3.87;78.52;99761.03;5133386;27;20063;-80
2023/01/31 14:26:52;;;;;;;9.02;2.53;;;;;;;3.96;79.16;99762.09;5133651;27;20039;-80
2023/01/31 14:29:21;;;;;;;4.50;2.28;;;;;;;3.94;78.93;99758.69;5131599;27;20047;-80
2023/01/31 14:31:50;;;;;;;3.10;1.50;;;;;;;4.11;79.71;99798.50;5133542;27;20051;-80
2023/01/31 14:34:21;;;;;;;5.78;1.83;;;;;;;3.97;80.09;99767.34;5132394;27;20058;-80
2023/01/31 14:37:06;;;;;;;5.70;1.67;;;;;;;4.01;80.84;99773.34;5134139;27;20047;-79
2023/01/31 14:39:58;;;;;;;4.60;1.90;;;;;;;3.92;80.64;99791.09;5133569;27;20047;-80
2023/01/31 14:43:01;;;;;;;7.10;1.92;;;;;;;3.96;81.01;99799.75;5130211;27;20518;-80
2023/01/31 14:45:53;;;;;;;11.05;2.60;;;;;;;4.01;80.98;99798.38;5112978;28;20050;-80
2023/01/31 14:48:28;;;;;;;14.13;2.40;;;;;;;3.94;82.23;99791.81;5113120;28;20479;-80
2023/01/31 14:51:08;;;;;;;4.38;2.47;;;;;;;4.01;83.27;99798.38;5112996;28;20059;-79
2023/01/31 14:54:10;;;;;;;7.60;2.60;;;;;;;3.84;83.57;99780.09;5112006;28;20051;-79
2023/01/31 14:56:54;;;;;;;4.28;1.95;;;;;;;3.93;84.29;99797.31;5114016;27;20410;-79
2023/01/31 14:59:29;;;;;;;8.25;2.50;;;;;;;3.83;85.43;99800.75;5124413;27;20500;-79
2023/01/31 15:01:57;;;;;;;2.88;1.67;;;;;;;3.71;85.07;99789.16;5132976;27;20039;-79
2023/01/31 15:04:26;;;;;;;6.57;2.30;;;;;;;3.80;85.32;99810.94;5132562;27;20047;-79
2023/01/31 15:06:56;;;;;;;6.32;2.40;;;;;;;3.69;86.19;99793.84;5132991;27;20065;-79
2023/01/31 15:09:35;;;;;;;4.40;2.33;;;;;;;3.75;85.97;99792.47;5131783;27;20043;-79
2023/01/31 15:12:05;;;;;;;5.53;2.58;;;;;;;3.79;87.18;99810.06;5125011;27;20047;-79
2023/01/31 15:14:39;;;;;;;8.05;2.55;;;;;;;3.80;87.06;99806.41;5127493;27;20046;-79
2023/01/31 15:17:12;;;;;;;5.30;1.95;;;;;;;3.71;87.33;99797.25;5132172;27;20053;-79
2023/01/31 15:19:45;;;;;;;4.82;2.15;;;;;;;3.74;87.58;99804.22;5132064;27;20066;-79
2023/01/31 15:22:17;;;;;;;7.72;2.45;;;;;;;3.79;88.59;99812.75;5131321;27;20493;-79
2023/01/31 15:24:47;;;;;;;14.70;2.20;;;;;;;3.63;89.45;99780.00;5131136;27;20061;-79
2023/01/31 15:27:19;;;;;;;5.15;2.58;;;;;;;3.78;89.37;99794.91;5115994;27;20048;-79
2023/01/31 15:29:56;;;;;;;3.90;2.90;;;;;;;3.85;89.21;99801.50;5119881;27;20074;-79
2023/01/31 15:32:26;;;;;;;4.25;1.92;;;;;;;3.82;88.69;99798.19;5126626;27;20044;-78
2023/01/31 15:35:01;;;;;;;11.32;2.10;;;;;;;3.83;88.24;99800.75;5132252;27;20109;-79
2023/01/31 15:37:33;;;;;;;5.68;1.98;;;;;;;3.84;89.20;99806.97;5126831;27;20044;-79
2023/01/31 15:40:04;;;;;;;6.13;2.47;;;;;;;3.72;89.71;99798.97;5127358;27;20066;-79
2023/01/31 15:42:32;;;;;;;5.53;2.40;;;;;;;3.72;90.64;99792.75;5123553;27;20050;-79
2023/01/31 15:45:30;;;;;;;6.88;2.63;;;;;;;3.63;90.91;99782.72;5126824;27;20478;-79
2023/01/31 15:48:01;;;;;;;5.03;2.25;;;;;;;3.65;91.01;99781.59;5045316;28;20053;-79
2023/01/31 15:50:32;;;;;;;5.22;2.63;;;;;;;3.63;93.03;99775.50;5109993;27;20047;-79
2023/01/31 15:53:13;;;;;;;6.35;2.58;;;;;;;3.85;95.08;99816.78;5123809;27;20054;-80
2023/01/31 15:55:40;;;;;;;5.72;2.65;;;;;;;3.74;94.27;99814.97;5113369;27;20047;-79
2023/01/31 15:58:14;;;;;;;7.57;3.95;;;;;;;3.64;94.85;99812.16;5124945;27;20054;-79
2023/01/31 16:00:43;;;;;;;16.48;6.00;;;;;;;3.53;95.70;99807.66;5122097;27;20533;-79
2023/01/31 16:03:19;;;;;;;10.25;3.47;;;;;;;3.50;96.09;99794.47;5125152;27;20081;-79
2023/01/31 16:05:49;;;;;;;8.85;3.72;;;;;;;3.64;96.87;99830.13;5123985;27;20058;-79
2023/01/31 16:08:21;;;;;;;6.10;3.17;;;;;;;3.61;96.92;99817.78;5124672;27;20055;-79
2023/01/31 16:10:49;;;;;;;10.15;3.50;;;;;;;3.42;97.27;99786.19;5129124;28;20046;-79
2023/01/31 16:13:16;;;;;;;11.25;4.03;;;;;;;3.58;98.87;99830.63;5114983;28;20047;-79
2023/01/31 16:15:43;;;;;;;7.07;2.65;;;;;;;3.54;97.25;99820.13;5116157;28;20441;-79
2023/01/31 16:18:12;;;;;;;8.13;3.08;;;;;;;3.46;98.61;99808.28;5127833;28;20047;-79
2023/01/31 16:20:43;;;;;;;6.50;3.70;;;;;;;3.41;99.90;99811.34;5123374;27;20534;-79
2023/01/31 16:23:29;;;;;;;11.93;3.80;;;;;;;3.50;98.54;99807.91;5118683;28;20039;-79
2023/01/31 16:26:01;;;;;;;9.57;2.85;;;;;;;3.40;98.47;99798.88;5123705;28;20520;-79
2023/01/31 16:28:30;;;;;;;7.28;3.00;;;;;;;3.52;97.24;99816.72;5128190;28;20450;-78
2023/01/31 16:31:05;;;;;;;10.10;3.22;;;;;;;3.41;98.07;99802.44;5129204;28;20423;-79
2023/01/31 16:33:31;;;;;;;8.40;3.33;;;;;;;3.48;97.76;99809.03;5127598;28;20422;-79
2023/01/31 16:36:05;;;;;;;11.65;3.45;;;;;;;3.58;97.29;99820.72;5121605;27;20046;-79
2023/01/31 16:38:33;;;;;;;5.97;2.60;;;;;;;3.41;97.68;99795.22;5124723;27;20077;-79
2023/01/31 16:41:06;;;;;;;8.15;2.90;;;;;;;3.63;97.23;99831.97;5117694;28;20173;-78
2023/01/31 16:43:36;;;;;;;6.95;3.53;;;;;;;3.61;97.40;99820.47;5119056;28;20440;-78
2023/01/31 16:46:05;;;;;;;11.75;3.30;;;;;;;3.51;97.20;99800.72;5123411;27;20043;-79
2023/01/31 16:48:34;;;;;;;10.25;4.03;;;;;;;3.53;96.62;99828.31;5125490;28;20497;-79
2023/01/31 16:51:40;;;;;;;12.70;3.28;;;;;;;3.49;97.17;99816.09;5122782;28;20043;-80
2023/01/31 16:54:23;;;;;;;7.57;3.60;;;;;;;3.57;97.59;99826.22;5121101;27;20391;-79
2023/01/31 16:57:06;;;;;;;8.98;4.15;;;;;;;3.59;96.75;99837.72;5125639;28;20334;-79
2023/01/31 16:59:47;;;;;;;22.00;5.20;;;;;;;3.53;96.92;99826.47;5131994;27;20055;-79
2023/01/31 17:02:26;;;;;;;6.95;3.50;;;;;;;3.61;95.83;99833.91;5129538;27;20046;-78
2023/01/31 17:04:55;;;;;;;7.50;3.10;;;;;;;3.57;96.21;99839.66;5132270;27;20047;-79
2023/01/31 17:07:25;;;;;;;4.53;2.72;;;;;;;3.58;96.43;99827.94;5131867;27;20078;-80
2023/01/31 17:09:58;;;;;;;7.28;2.65;;;;;;;3.53;96.82;99831.84;5132876;27;20050;-79
2023/01/31 17:12:27;;;;;;;9.55;4.13;;;;;;;3.58;97.67;99836.00;5131834;27;20235;-79
2023/01/31 17:14:56;;;;;;;6.45;3.85;;;;;;;3.64;98.04;99848.97;5132169;27;20046;-79
2023/01/31 17:17:28;;;;;;;15.18;3.90;;;;;;;3.54;98.81;99833.56;5125830;27;20407;-79
2023/01/31 17:19:55;;;;;;;9.45;3.45;;;;;;;3.63;99.38;99842.75;5130310;27;20490;-79
2023/01/31 17:22:22;;;;;;;9.45;3.88;;;;;;;3.51;99.42;99831.13;5130841;27;20043;-79
2023/01/31 17:24:49;;;;;;;8.05;3.28;;;;;;;3.49;100.00;99829.53;5118854;27;20137;-79
2023/01/31 17:27:20;;;;;;;6.93;2.78;;;;;;;3.50;100.00;99824.03;5111368;28;20139;-79
2023/01/31 17:29:47;;;;;;;6.55;3.00;;;;;;;3.55;99.38;99826.34;5111622;28;20417;-79
2023/01/31 17:32:14;;;;;;;11.07;3.78;;;;;;;3.62;98.92;99841.00;5125594;27;20047;-79
2023/01/31 17:34:43;;;;;;;7.43;3.55;;;;;;;3.53;98.62;99822.94;5131356;27;20055;-79
2023/01/31 17:37:11;;;;;;;6.13;3.22;;;;;;;3.53;98.94;99809.50;5130307;27;20051;-79
2023/01/31 17:39:38;;;;;;;6.47;3.17;;;;;;;3.53;98.88;99810.34;5132490;27;20066;-79
2023/01/31 17:42:05;;;;;;;9.23;4.32;;;;;;;3.69;98.92;99834.16;5131259;27;20460;-83
2023/01/31 17:44:34;;;;;;;8.60;3.42;;;;;;;3.74;97.00;99823.03;5135221;27;20055;-79
2023/01/31 17:47:00;;;;;;;11.45;3.30;;;;;;;3.61;96.04;99809.72;5134945;27;20218;-79
2023/01/31 17:49:27;;;;;;;6.20;2.75;;;;;;;3.77;95.55;99817.41;5133861;27;20063;-79
2023/01/31 17:51:54;;;;;;;7.10;3.30;;;;;;;3.79;95.63;99814.59;5131326;27;20404;-79
2023/01/31 17:54:21;;;;;;;11.27;3.60;;;;;;;3.64;95.25;99801.41;5131071;27;20043;-79
2023/01/31 17:56:47;;;;;;;7.43;3.45;;;;;;;3.66;94.81;99780.63;5134237;27;20063;-79
2023/01/31 17:59:14;;;;;;;16.17;4.13;;;;;;;3.74;95.42;99806.91;5133933;27;20043;-79
2023/01/31 18:01:42;;;;;;;7.95;3.10;;;;;;;3.80;95.11;99800.16;5133208;27;20039;-79
2023/01/31 18:04:08;;;;;;;10.07;2.88;;;;;;;3.71;94.08;99791.00;5120876;27;20140;-79
2023/01/31 18:06:36;;;;;;;3.45;2.33;;;;;;;3.71;95.02;99791.00;5122083;27;20051;-79
2023/01/31 18:09:04;;;;;;;4.50;2.90;;;;;;;3.68;94.82;99785.88;5132030;27;20054;-79
2023/01/31 18:11:31;;;;;;;9.02;4.45;;;;;;;3.82;95.34;99819.72;5130935;27;20133;-79
2023/01/31 18:13:58;;;;;;;8.00;3.78;;;;;;;3.83;95.24;99819.59;5132675;27;20054;-79
2023/01/31 18:16:26;;;;;;;6.20;3.17;;;;;;;3.62;95.11;99781.00;5134295;27;20047;-79
2023/01/31 18:18:54;;;;;;;9.02;3.83;;;;;;;3.76;95.60;99804.09;5133637;27;20047;-79
2023/01/31 18:21:22;;;;;;;10.23;3.70;;;;;;;3.70;95.13;99797.38;5133681;27;20138;-79
2023/01/31 18:23:50;;;;;;;7.75;2.95;;;;;;;3.81;94.89;99800.03;5132676;27;20047;-78
2023/01/31 18:26:17;;;;;;;10.07;3.80;;;;;;;3.78;95.09;99800.31;5128387;27;20046;-79
2023/01/31 18:28:45;;;;;;;6.97;3.15;;;;;;;3.70;95.49;99778.53;5127862;27;20043;-79
2023/01/31 18:31:14;;;;;;;8.60;2.97;;;;;;;3.86;95.58;99803.19;5133085;27;20050;-79
2023/01/31 18:33:42;;;;;;;5.32;2.60;;;;;;;3.73;95.78;99778.28;5132806;27;20096;-79
2023/01/31 18:36:13;;;;;;;8.27;2.75;;;;;;;3.80;94.74;99792.94;5133472;27;20047;-79
2023/01/31 18:38:40;;;;;;;10.68;2.65;;;;;;;3.78;95.67;99788.66;5133390;27;20046;-79
2023/01/31 18:41:08;;;;;;;10.82;2.85;;;;;;;3.77;95.73;99800.44;5131396;27;20081;-79
2023/01/31 18:43:35;;;;;;;8.55;2.65;;;;;;;3.70;96.23;99776.72;5132157;27;20401;-79
2023/01/31 18:46:03;;;;;;;11.73;3.90;;;;;;;3.59;96.61;99755.22;5131799;27;20071;-79
2023/01/31 18:48:30;;;;;;;5.38;2.70;;;;;;;3.63;95.94;99780.88;5132553;27;20136;-79
2023/01/31 18:50:59;;;;;;;5.85;2.90;;;;;;;3.80;96.29;99792.94;5133397;27;20137;-79
2023/01/31 18:53:27;;;;;;;2.83;1.87;;;;;;;3.63;96.33;99758.50;5130270;27;20069;-79
2023/01/31 18:55:59;;;;;;;9.35;2.55;;;;;;;3.88;96.79;99808.44;5131828;27;20636;-79
2023/01/31 18:58:25;;;;;;;10.68;3.33;;;;;;;3.79;96.93;99793.91;5131615;27;20569;-79
2023/01/31 19:00:52;;;;;;;6.63;2.60;;;;;;;3.83;97.48;99792.69;5132195;27;20061;-79
2023/01/31 19:03:18;;;;;;;6.47;2.80;;;;;;;3.68;97.86;99775.97;5130355;27;20051;-79
2023/01/31 19:05:44;;;;;;;8.82;2.45;;;;;;;3.85;97.39;99790.75;5129617;27;20044;-79
2023/01/31 19:08:11;;;;;;;5.68;2.80;;;;;;;3.84;97.95;99789.03;5132511;27;20062;-79
2023/01/31 19:10:39;;;;;;;4.22;2.55;;;;;;;3.66;97.58;99767.19;5128468;27;20054;-79
2023/01/31 19:13:05;;;;;;;7.75;2.72;;;;;;;3.80;97.33;99800.16;5131679;27;20051;-79
2023/01/31 19:15:32;;;;;;;7.07;2.42;;;;;;;3.67;97.01;99778.78;5132599;27;20469;-79
2023/01/31 19:17:58;;;;;;;5.45;2.38;;;;;;;3.92;97.10;99804.53;5131120;27;20046;-79
2023/01/31 19:20:25;;;;;;;18.23;6.05;;;;;;;3.82;97.70;99790.13;5131735;27;20043;-79
2023/01/31 19:22:52;;;;;;;12.05;5.20;;;;;;;3.80;98.54;99784.88;5131989;27;20059;-79
2023/01/31 19:25:18;;;;;;;11.63;5.03;;;;;;;3.75;98.35;99779.03;5125640;27;20043;-79
2023/01/31 19:27:46;;;;;;;14.88;4.32;;;;;;;3.76;98.83;99782.56;5131966;27;20039;-79
2023/01/31 19:30:14;;;;;;;10.82;3.00;;;;;;;3.71;99.05;99764.13;5132195;27;20051;-79
2023/01/31 19:32:40;;;;;;;6.07;2.50;;;;;;;3.73;99.12;99770.22;5131466;27;20057;-79
2023/01/31 19:35:08;;;;;;;5.07;3.40;;;;;;;3.90;99.28;99803.81;5132517;27;20488;-79
2023/01/31 19:37:34;;;;;;;15.65;4.85;;;;;;;3.81;99.95;99780.34;5132407;27;20043;-79
2023/01/31 19:40:03;;;;;;;11.07;3.55;;;;;;;3.84;100.00;99769.31;5130845;27;20051;-79
2023/01/31 19:42:30;;;;;;;5.40;2.25;;;;;;;3.69;100.00;99752.66;5129536;27;20055;-79
2023/01/31 19:44:58;;;;;;;4.97;2.60;;;;;;;3.69;100.00;99761.56;5132041;27;20047;-79
2023/01/31 19:47:24;;;;;;;7.57;3.28;;;;;;;3.72;100.00;99755.09;5132162;27;20281;-79
2023/01/31 19:49:51;;;;;;;5.03;2.72;;;;;;;3.66;100.00;99747.53;5132108;27;20063;-79
2023/01/31 19:52:17;;;;;;;6.28;2.72;;;;;;;3.80;100.00;99752.59;5131220;27;20483;-79
2023/01/31 19:54:44;;;;;;;4.30;2.08;;;;;;;3.78;100.00;99748.31;5126574;27;20410;-78
2023/01/31 19:57:10;;;;;;;4.85;2.70;;;;;;;3.69;100.00;99747.28;5131501;27;20154;-79
2023/01/31 19:59:37;;;;;;;5.88;2.25;;;;;;;3.75;100.00;99772.78;5126508;27;20497;-79
2023/01/31 20:02:05;;;;;;;3.15;2.08;;;;;;;3.82;100.00;99779.38;5130836;27;20070;-79
2023/01/31 20:04:31;;;;;;;5.45;2.20;;;;;;;3.70;100.00;99773.16;5131989;27;20047;-79
2023/01/31 20:06:58;;;;;;;8.05;2.85;;;;;;;3.57;100.00;99759.00;5131734;27;20074;-79
2023/01/31 20:09:24;;;;;;;4.22;2.53;;;;;;;3.78;100.00;99783.28;5129566;27;20047;-79
2023/01/31 20:11:52;;;;;;;3.03;1.90;;;;;;;3.70;100.00;99774.03;5131425;28;20501;-79
2023/01/31 20:14:19;;;;;;;6.35;2.78;;;;;;;3.67;100.00;99763.53;5130835;28;20043;-79
